Time;durP1;ratioP1;P1;durP2;ratioP2;P2;SDS_P1;SDS_P2;PMS_P1;PMS_P2;Temp;Humidity;BMP_temperature;BMP_pressure;BME280_temperature;BME280_humidity;BME280_pressure;Samples;Min_cycle;Max_cycle;Signal;HPM_P1;HPM_P2
2022/10/07 00:00:12;;;;;;;9.82;3.80;;;;;;;8.30;88.64;102666.09;4933765;29;20130;-73
2022/10/07 00:02:38;;;;;;;16.08;4.13;;;;;;;8.28;89.40;102674.31;4932950;29;20045;-73
2022/10/07 00:05:03;;;;;;;19.77;4.25;;;;;;;8.25;89.73;102663.56;4915222;29;20032;-73
2022/10/07 00:07:28;;;;;;;15.20;4.43;;;;;;;8.26;89.67;102664.47;4930116;29;20707;-74
2022/10/07 00:09:54;;;;;;;10.45;4.25;;;;;;;8.22;89.41;102660.09;4933691;29;20055;-73
2022/10/07 00:12:19;;;;;;;15.43;4.53;;;;;;;8.24;89.98;102656.38;4933393;29;20044;-73
2022/10/07 00:14:45;;;;;;;8.95;4.35;;;;;;;8.22;89.11;102657.38;4933425;29;20040;-74
2022/10/07 00:17:10;;;;;;;11.43;3.92;;;;;;;8.20;88.89;102657.41;4932634;29;20669;-73
2022/10/07 00:19:35;;;;;;;15.65;4.55;;;;;;;8.25;89.37;102654.53;4928435;29;20401;-74
2022/10/07 00:22:01;;;;;;;14.50;4.07;;;;;;;8.24;88.16;102656.38;4912861;29;20171;-73
2022/10/07 00:24:26;;;;;;;17.23;4.18;;;;;;;8.19;89.68;102652.91;4930635;29;20053;-73
2022/10/07 00:26:51;;;;;;;9.30;4.22;;;;;;;8.16;89.55;102645.81;4931780;29;20039;-73
2022/10/07 00:29:17;;;;;;;11.70;4.05;;;;;;;8.18;90.60;102648.44;4931673;29;20039;-73
2022/10/07 00:31:42;;;;;;;13.13;3.88;;;;;;;8.15;90.24;102649.41;4932571;29;20054;-73
2022/10/07 00:34:10;;;;;;;18.80;3.58;;;;;;;8.15;89.82;102643.13;4930343;29;20043;-73
2022/10/07 00:36:36;;;;;;;8.40;3.60;;;;;;;8.13;89.02;102636.88;4931432;29;20464;-73
2022/10/07 00:39:08;;;;;;;14.10;4.60;;;;;;;8.15;90.25;102637.69;4932336;29;20098;-72
2022/10/07 00:41:40;;;;;;;10.88;3.20;;;;;;;8.13;89.15;102635.03;4932597;29;20087;-73
2022/10/07 00:44:31;;;;;;;18.13;4.13;;;;;;;8.12;89.33;102633.28;4931250;29;20039;-73
2022/10/07 00:47:03;;;;;;;18.05;3.53;;;;;;;8.07;89.27;102627.13;4912072;29;20040;-73
2022/10/07 00:49:35;;;;;;;9.68;3.50;;;;;;;8.05;89.40;102625.38;4927468;29;20390;-73
2022/10/07 00:52:02;;;;;;;11.13;3.65;;;;;;;8.01;89.18;102631.84;4931476;29;20039;-72
2022/10/07 00:54:27;;;;;;;9.02;3.45;;;;;;;7.99;89.58;102623.78;4931985;29;20035;-73
2022/10/07 00:56:53;;;;;;;11.70;3.78;;;;;;;7.98;89.26;102621.13;4931117;29;20048;-72
2022/10/07 00:59:19;;;;;;;10.43;3.13;;;;;;;7.95;89.46;102621.22;4932964;29;20431;-73
2022/10/07 01:01:45;;;;;;;13.73;3.47;;;;;;;7.92;90.05;102612.22;4931344;29;20047;-73
2022/10/07 01:04:13;;;;;;;11.63;3.47;;;;;;;7.95;90.18;102608.56;4931966;29;20043;-73
2022/10/07 01:06:40;;;;;;;13.25;4.00;;;;;;;7.93;90.58;102619.44;4932571;29;20040;-73
2022/10/07 01:09:07;;;;;;;11.07;3.38;;;;;;;7.90;89.56;102615.94;4916643;29;20444;-73
2022/10/07 01:12:00;;;;;;;16.92;3.80;;;;;;;7.89;90.37;102609.66;4918785;29;20419;-73
2022/10/07 01:14:34;;;;;;;9.70;3.90;;;;;;;7.87;90.08;102608.78;4931145;29;20456;-73
2022/10/07 01:17:14;;;;;;;9.60;3.95;;;;;;;7.86;91.06;102598.00;4929587;29;20043;-73
2022/10/07 01:20:14;;;;;;;10.60;3.72;;;;;;;7.82;90.50;102594.50;4923391;29;20080;-73
2022/10/07 01:22:45;;;;;;;11.80;4.43;;;;;;;7.80;90.13;102598.22;4929573;29;20040;-73
2022/10/07 01:25:16;;;;;;;11.93;3.60;;;;;;;7.77;90.11;102590.19;4918120;29;20036;-73
2022/10/07 01:27:54;;;;;;;13.63;3.72;;;;;;;7.77;91.44;102591.06;4921487;29;20043;-73
2022/10/07 01:30:20;;;;;;;11.07;3.53;;;;;;;7.77;90.60;102588.38;4921697;29;20115;-74
2022/10/07 01:32:52;;;;;;;15.70;4.20;;;;;;;7.82;91.70;102580.97;4912627;29;20480;-73
2022/10/07 01:35:24;;;;;;;17.00;4.20;;;;;;;7.83;92.00;102581.84;4928772;29;20035;-73
2022/10/07 01:37:53;;;;;;;14.85;5.03;;;;;;;7.84;91.97;102572.81;4928586;29;20575;-73
2022/10/07 01:40:26;;;;;;;14.13;4.82;;;;;;;7.82;91.20;102570.13;4930260;29;20035;-73
2022/10/07 01:42:53;;;;;;;22.35;4.70;;;;;;;7.82;91.57;102558.41;4924152;29;20080;-74
2022/10/07 01:45:22;;;;;;;19.30;4.05;;;;;;;7.84;91.55;102559.25;4913083;29;20189;-73
2022/10/07 01:47:49;;;;;;;16.13;3.90;;;;;;;7.84;91.37;102553.84;4925771;29;20063;-73
2022/10/07 01:50:17;;;;;;;12.52;4.45;;;;;;;7.83;92.70;102552.97;4927273;29;20048;-73
2022/10/07 01:52:59;;;;;;;13.15;4.13;;;;;;;7.80;91.98;102547.63;4913905;29;20031;-74
2022/10/07 01:55:40;;;;;;;12.70;4.63;;;;;;;7.79;91.52;102537.75;4930308;29;20035;-73
2022/10/07 01:58:31;;;;;;;13.82;4.10;;;;;;;7.76;91.07;102540.53;4926469;29;20051;-73
2022/10/07 02:01:18;;;;;;;14.43;4.47;;;;;;;7.75;92.98;102527.94;4927059;29;20552;-73
2022/10/07 02:04:28;;;;;;;12.40;3.97;;;;;;;7.76;92.10;102532.41;4915777;29;20032;-73
2022/10/07 02:07:21;;;;;;;12.90;4.10;;;;;;;7.78;92.32;102535.06;4901373;29;20143;-72
2022/10/07 02:10:05;;;;;;;15.18;4.72;;;;;;;7.77;91.56;102525.16;4926959;29;20040;-73
2022/10/07 02:12:39;;;;;;;21.73;5.82;;;;;;;7.73;91.13;102526.19;4912534;29;20102;-73
2022/10/07 02:15:20;;;;;;;17.50;4.13;;;;;;;7.70;91.48;102521.78;4926984;29;20484;-73
2022/10/07 02:17:52;;;;;;;14.00;3.88;;;;;;;7.66;91.47;102512.88;4925439;29;20139;-73
2022/10/07 02:20:22;;;;;;;13.02;4.38;;;;;;;7.60;91.36;102513.09;4912984;29;20044;-73
2022/10/07 02:22:50;;;;;;;13.68;4.85;;;;;;;7.61;92.64;102512.16;4911878;29;20460;-73
2022/10/07 02:25:18;;;;;;;12.95;4.35;;;;;;;7.61;92.66;102516.69;4914126;29;20363;-74
2022/10/07 02:27:46;;;;;;;20.50;4.68;;;;;;;7.61;91.84;102512.16;4929450;29;20130;-73
2022/10/07 02:30:14;;;;;;;16.15;4.15;;;;;;;7.59;92.12;102503.16;4930065;29;20087;-73
2022/10/07 02:32:50;;;;;;;19.08;4.88;;;;;;;7.57;92.30;102507.75;4910163;29;20044;-73
2022/10/07 02:35:41;;;;;;;13.82;4.72;;;;;;;7.56;92.40;102500.59;4911252;29;20043;-74
2022/10/07 02:38:10;;;;;;;13.98;4.28;;;;;;;7.52;92.44;102496.19;4912641;29;20052;-73
2022/10/07 02:40:42;;;;;;;13.07;4.50;;;;;;;7.50;92.48;102494.47;4926962;29;20040;-73
2022/10/07 02:43:29;;;;;;;14.18;4.97;;;;;;;7.50;92.64;102495.34;4929575;29;20062;-73
2022/10/07 02:46:09;;;;;;;13.63;3.88;;;;;;;7.47;93.08;102481.94;4927939;29;20555;-73
2022/10/07 02:48:42;;;;;;;12.90;4.50;;;;;;;7.49;92.69;102488.16;4912598;29;20048;-73
2022/10/07 02:51:17;;;;;;;20.05;5.03;;;;;;;7.48;92.38;102474.69;4926964;29;20044;-74
2022/10/07 02:53:48;;;;;;;12.68;4.70;;;;;;;7.42;92.17;102473.06;4926319;29;20522;-74
2022/10/07 02:56:16;;;;;;;12.80;4.93;;;;;;;7.43;92.62;102471.25;4920795;29;20075;-73
2022/10/07 02:58:44;;;;;;;17.42;4.60;;;;;;;7.43;92.56;102474.84;4931563;29;20127;-73
2022/10/07 03:01:16;;;;;;;14.52;4.28;;;;;;;7.39;92.61;102468.63;4932665;29;20066;-74
2022/10/07 03:03:43;;;;;;;17.15;4.97;;;;;;;7.39;92.53;102465.03;4929619;29;20122;-73
2022/10/07 03:06:11;;;;;;;16.65;4.32;;;;;;;7.39;92.62;102470.47;4914447;29;20491;-74
2022/10/07 03:08:37;;;;;;;16.42;5.40;;;;;;;7.37;92.78;102461.53;4914640;29;20035;-74
2022/10/07 03:11:04;;;;;;;12.43;5.57;;;;;;;7.37;92.69;102458.81;4914246;29;20123;-74
2022/10/07 03:13:30;;;;;;;13.23;4.15;;;;;;;7.35;92.65;102458.84;4920034;29;20131;-73
2022/10/07 03:15:59;;;;;;;16.30;4.40;;;;;;;7.33;92.46;102459.84;4914418;29;20036;-73
2022/10/07 03:18:26;;;;;;;17.20;5.18;;;;;;;7.32;92.43;102456.25;4929570;29;20020;-74
2022/10/07 03:20:54;;;;;;;16.88;4.70;;;;;;;7.31;93.18;102459.00;4928255;29;20134;-73
2022/10/07 03:23:21;;;;;;;17.55;4.75;;;;;;;7.30;92.97;102451.81;4922901;29;20448;-73
2022/10/07 03:25:51;;;;;;;13.88;4.60;;;;;;;7.30;93.10;102440.97;4932701;29;20403;-73
2022/10/07 03:28:19;;;;;;;14.48;4.53;;;;;;;7.28;93.05;102449.16;4932636;29;20063;-73
2022/10/07 03:30:46;;;;;;;10.98;4.93;;;;;;;7.26;93.31;102440.19;4932412;29;20084;-73
2022/10/07 03:33:13;;;;;;;12.65;4.78;;;;;;;7.24;93.66;102435.78;4931624;29;20031;-73
2022/10/07 03:35:38;;;;;;;13.73;4.50;;;;;;;7.26;93.83;102439.31;4932836;29;20086;-74
2022/10/07 03:38:07;;;;;;;14.23;4.55;;;;;;;7.24;92.83;102433.06;4932316;29;20024;-74
2022/10/07 03:40:36;;;;;;;15.90;4.40;;;;;;;7.20;92.90;102432.28;4932742;29;20114;-73
2022/10/07 03:43:03;;;;;;;10.68;4.50;;;;;;;7.22;93.58;102433.09;4932572;29;20166;-74
2022/10/07 03:45:29;;;;;;;12.40;4.50;;;;;;;7.22;93.93;102432.22;4932636;29;20399;-73
2022/10/07 03:47:56;;;;;;;19.55;5.45;;;;;;;7.22;93.36;102426.81;4931191;29;20035;-73
2022/10/07 03:50:22;;;;;;;16.58;4.38;;;;;;;7.20;93.09;102424.16;4913949;29;20435;-73
2022/10/07 03:52:48;;;;;;;15.73;5.25;;;;;;;7.15;92.85;102421.59;4932508;29;20393;-74
2022/10/07 03:55:15;;;;;;;12.30;4.50;;;;;;;7.15;92.41;102431.56;4932490;29;20087;-74
2022/10/07 03:57:52;;;;;;;17.10;4.70;;;;;;;7.12;93.15;102424.41;4931609;29;20392;-73
2022/10/07 04:00:20;;;;;;;21.05;5.97;;;;;;;7.11;92.80;102425.34;4898198;29;20491;-73
2022/10/07 04:02:51;;;;;;;13.27;4.40;;;;;;;7.08;92.88;102421.84;4924015;29;20504;-73
2022/10/07 04:05:19;;;;;;;12.00;4.93;;;;;;;7.08;93.35;102424.56;4932298;29;20407;-73
2022/10/07 04:07:46;;;;;;;14.02;4.53;;;;;;;7.07;93.75;102420.97;4931557;29;20039;-73
2022/10/07 04:10:14;;;;;;;12.35;4.13;;;;;;;7.05;92.94;102430.09;4931913;29;20060;-73
2022/10/07 04:12:40;;;;;;;11.57;4.38;;;;;;;7.05;93.75;102424.69;4932144;29;20456;-73
2022/10/07 04:15:06;;;;;;;13.88;4.22;;;;;;;7.02;93.30;102417.53;4932181;29;20028;-73
2022/10/07 04:17:32;;;;;;;14.25;4.18;;;;;;;7.03;93.57;102413.00;4932723;29;20060;-73
2022/10/07 04:19:58;;;;;;;15.07;4.43;;;;;;;7.01;93.47;102421.19;4931500;29;20526;-73
2022/10/07 04:22:25;;;;;;;15.27;5.10;;;;;;;7.02;94.33;102413.94;4931844;29;20035;-73
2022/10/07 04:27:36;;;;;;;10.65;5.53;;;;;;;7.00;93.86;102415.81;4931835;29;20043;-73
2022/10/07 04:30:03;;;;;;;13.27;4.38;;;;;;;6.98;93.85;102412.25;4931410;29;20046;-73
2022/10/07 04:32:30;;;;;;;11.68;4.70;;;;;;;6.97;93.56;102413.22;4930223;29;20066;-73
2022/10/07 04:34:55;;;;;;;10.57;4.60;;;;;;;6.95;93.95;102409.66;4931372;29;20494;-73
2022/10/07 04:37:21;;;;;;;16.13;5.07;;;;;;;6.94;93.73;102408.75;4932084;29;20059;-74
2022/10/07 04:39:46;;;;;;;14.82;4.40;;;;;;;6.92;93.35;102409.75;4931350;29;20040;-73
2022/10/07 04:43:17;;;;;;;16.55;4.30;;;;;;;6.90;94.12;102413.41;4932806;29;20551;-73
2022/10/07 04:44:58;;;;;;;20.08;4.45;;;;;;;6.89;93.47;102410.72;4928362;29;20334;-73
2022/10/07 04:47:24;;;;;;;18.50;5.75;;;;;;;6.87;93.47;102412.63;4919137;29;20056;-73
2022/10/07 04:49:52;;;;;;;13.55;4.75;;;;;;;6.83;93.17;102411.81;4928364;29;20032;-73
2022/10/07 04:52:19;;;;;;;20.52;5.20;;;;;;;6.83;94.25;102405.53;4928766;29;20062;-73
2022/10/07 04:54:45;;;;;;;10.07;4.45;;;;;;;6.81;93.93;102408.28;4912213;29;20162;-73
2022/10/07 04:57:12;;;;;;;15.45;4.97;;;;;;;6.82;94.14;102401.06;4919960;29;20167;-73
2022/10/07 04:59:38;;;;;;;12.75;5.50;;;;;;;6.81;94.25;102402.88;4928176;29;20456;-73
2022/10/07 05:02:04;;;;;;;12.02;5.05;;;;;;;6.81;94.20;102394.78;4913602;29;20098;-73
2022/10/07 05:04:32;;;;;;;15.32;4.95;;;;;;;6.81;94.14;102397.47;4911885;29;20033;-73
2022/10/07 05:06:58;;;;;;;17.20;5.13;;;;;;;6.78;94.65;102384.03;4912346;29;20047;-73
2022/10/07 05:09:24;;;;;;;17.15;4.88;;;;;;;6.80;94.22;102392.09;4911814;29;20047;-73
2022/10/07 05:11:55;;;;;;;21.80;5.68;;;;;;;6.78;94.92;102393.97;4922197;29;20051;-73
2022/10/07 05:14:22;;;;;;;19.13;6.57;;;;;;;6.80;95.19;102386.69;4912540;29;20108;-73
2022/10/07 05:16:49;;;;;;;15.57;4.93;;;;;;;6.79;94.45;102390.31;4922096;29;20032;-73
2022/10/07 05:19:16;;;;;;;16.15;5.07;;;;;;;6.77;94.34;102384.09;4911758;29;20071;-73
2022/10/07 05:21:42;;;;;;;18.65;6.93;;;;;;;6.77;94.34;102389.50;4911498;29;20095;-73
2022/10/07 05:24:07;;;;;;;14.00;5.20;;;;;;;6.75;94.50;102378.72;4926493;29;20135;-73
2022/10/07 05:26:35;;;;;;;18.65;5.43;;;;;;;6.74;94.64;102381.47;4921648;29;20478;-73
2022/10/07 05:29:03;;;;;;;24.20;4.85;;;;;;;6.71;94.78;102379.75;4928852;29;20035;-73
2022/10/07 05:31:35;;;;;;;14.93;4.85;;;;;;;6.69;94.21;102376.22;4927832;29;20036;-73
2022/10/07 05:34:02;;;;;;;18.17;5.47;;;;;;;6.69;94.80;102372.63;4928560;29;20035;-73
2022/10/07 05:36:28;;;;;;;16.35;6.05;;;;;;;6.66;94.61;102376.31;4928012;29;20094;-73
2022/10/07 05:38:56;;;;;;;15.10;5.55;;;;;;;6.65;94.49;102371.84;4929994;29;20034;-73
2022/10/07 05:41:24;;;;;;;18.52;5.05;;;;;;;6.64;94.39;102370.94;4929886;29;20488;-72
2022/10/07 05:43:49;;;;;;;22.27;5.63;;;;;;;6.60;94.29;102361.16;4930768;29;20047;-73
2022/10/07 05:46:19;;;;;;;15.95;4.85;;;;;;;6.62;94.46;102364.72;4923900;29;20126;-73
2022/10/07 05:48:51;;;;;;;11.73;4.32;;;;;;;6.62;94.65;102370.13;4930222;29;20369;-73
2022/10/07 05:51:23;;;;;;;12.25;4.95;;;;;;;6.61;94.75;102367.44;4930840;29;20036;-73
2022/10/07 05:53:53;;;;;;;22.10;5.18;;;;;;;6.61;95.25;102373.75;4942352;29;20032;-73
2022/10/07 05:56:20;;;;;;;21.67;5.20;;;;;;;6.60;94.34;102373.81;4920609;29;20130;-73
2022/10/07 05:58:47;;;;;;;14.13;4.45;;;;;;;6.60;94.93;102362.97;4927715;29;20508;-74
2022/10/07 06:01:15;;;;;;;12.40;4.68;;;;;;;6.60;94.45;102360.28;4930332;29;20933;-73
2022/10/07 06:03:49;;;;;;;12.30;4.35;;;;;;;6.61;94.98;102362.03;4911067;29;20071;-73
2022/10/07 06:06:14;;;;;;;32.15;5.30;;;;;;;6.59;94.93;102355.81;4911644;29;20160;-73
2022/10/07 06:08:40;;;;;;;11.85;4.38;;;;;;;6.60;94.77;102358.47;4925895;29;20480;-73
2022/10/07 06:13:53;;;;;;;23.20;5.00;;;;;;;6.70;95.85;102350.94;4929251;29;20054;-73
2022/10/07 06:16:18;;;;;;;14.75;4.50;;;;;;;6.72;95.51;102356.31;4931048;29;20126;-73
2022/10/07 06:18:49;;;;;;;15.30;4.97;;;;;;;6.77;96.11;102359.75;4895597;29;20024;-73
2022/10/07 06:21:15;;;;;;;11.30;4.03;;;;;;;6.78;95.24;102354.28;4895576;29;20130;-73
2022/10/07 06:23:40;;;;;;;15.00;5.93;;;;;;;6.77;95.61;102346.22;4921438;29;20163;-73
2022/10/07 06:26:08;;;;;;;14.07;4.88;;;;;;;6.82;96.18;102353.25;4929779;29;20123;-73
2022/10/07 06:28:36;;;;;;;12.77;4.22;;;;;;;6.86;95.90;102351.34;4931339;29;20063;-73
2022/10/07 06:31:04;;;;;;;16.35;4.22;;;;;;;6.87;95.33;102343.16;4929835;29;20032;-73
2022/10/07 06:33:29;;;;;;;12.95;5.03;;;;;;;6.90;95.82;102345.78;4929694;29;20103;-73
2022/10/07 06:35:55;;;;;;;19.02;4.70;;;;;;;6.94;95.41;102342.94;4933872;29;20035;-73
2022/10/07 06:38:21;;;;;;;10.60;3.60;;;;;;;6.99;95.60;102341.84;4926196;29;20043;-73
2022/10/07 06:40:57;;;;;;;14.52;4.60;;;;;;;7.06;95.73;102348.84;4914754;29;20032;-73
2022/10/07 06:43:25;;;;;;;16.85;4.15;;;;;;;7.13;95.50;102349.50;4914289;29;20043;-73
2022/10/07 06:46:02;;;;;;;10.27;3.83;;;;;;;7.14;95.63;102352.19;4928522;29;20104;-73
2022/10/07 06:48:30;;;;;;;20.17;4.03;;;;;;;7.18;96.01;102349.34;4927375;29;20373;-73
2022/10/07 06:50:59;;;;;;;9.63;4.05;;;;;;;7.24;95.24;102350.03;4913488;29;20029;-73
2022/10/07 06:53:26;;;;;;;8.27;4.18;;;;;;;7.28;95.56;102340.88;4913258;29;20556;-73
2022/10/07 06:55:58;;;;;;;12.80;3.90;;;;;;;7.31;95.38;102346.16;4918769;29;20027;-73
2022/10/07 06:58:25;;;;;;;16.85;4.38;;;;;;;7.39;95.70;102351.34;4929013;29;20028;-73
2022/10/07 07:00:55;;;;;;;17.33;5.38;;;;;;;7.43;95.18;102357.53;4922515;29;20031;-73
2022/10/07 07:03:21;;;;;;;14.43;4.30;;;;;;;7.48;95.20;102359.13;4919232;29;20375;-73
2022/10/07 07:05:46;;;;;;;12.02;3.65;;;;;;;7.55;95.21;102349.84;4910089;29;20028;-73
2022/10/07 07:08:16;;;;;;;14.52;3.60;;;;;;;7.67;95.58;102344.00;4919323;29;20408;-73
2022/10/07 07:10:43;;;;;;;16.40;3.70;;;;;;;7.81;94.99;102348.91;4911025;29;20039;-73
2022/10/07 07:13:11;;;;;;;13.57;3.72;;;;;;;7.96;94.61;102352.88;4909553;29;20042;-73
2022/10/07 07:15:37;;;;;;;13.00;3.72;;;;;;;8.03;94.27;102350.81;4909911;29;20034;-73
2022/10/07 07:18:04;;;;;;;15.15;4.43;;;;;;;8.08;93.90;102352.41;4917560;29;20217;-72
2022/10/07 07:20:36;;;;;;;18.15;3.65;;;;;;;8.17;93.99;102353.91;4907560;29;20071;-73
2022/10/07 07:23:04;;;;;;;13.25;4.10;;;;;;;8.33;93.16;102359.59;4907916;29;20343;-73
2022/10/07 07:25:31;;;;;;;13.52;4.00;;;;;;;8.41;92.42;102354.81;4883536;29;20028;-73
2022/10/07 07:28:00;;;;;;;14.60;3.67;;;;;;;8.46;92.62;102355.50;4895360;29;20507;-73
2022/10/07 07:30:27;;;;;;;18.65;4.07;;;;;;;8.50;91.99;102348.13;4896968;29;20032;-73
2022/10/07 07:32:54;;;;;;;12.00;3.67;;;;;;;8.54;92.54;102356.09;4891570;29;20028;-73
2022/10/07 07:35:21;;;;;;;17.35;4.32;;;;;;;8.57;92.63;102352.34;4890714;29;20099;-73
2022/10/07 07:37:47;;;;;;;10.18;3.40;;;;;;;8.58;92.35;102351.41;4915576;29;20036;-74
2022/10/07 07:40:12;;;;;;;16.33;3.72;;;;;;;8.60;92.40;102354.97;4894532;29;20062;-73
2022/10/07 07:42:39;;;;;;;11.40;3.75;;;;;;;8.64;91.82;102345.75;4914288;29;20040;-74
2022/10/07 07:45:05;;;;;;;12.35;3.65;;;;;;;8.69;91.88;102341.91;4876039;29;20386;-73
2022/10/07 07:47:32;;;;;;;11.88;3.65;;;;;;;8.76;92.21;102341.66;4911180;29;20051;-73
2022/10/07 07:49:58;;;;;;;11.20;3.83;;;;;;;8.82;92.14;102338.72;4908822;29;20171;-73
2022/10/07 07:52:28;;;;;;;14.25;4.20;;;;;;;8.86;91.96;102338.50;4907506;29;20246;-73
2022/10/07 07:54:57;;;;;;;13.98;4.13;;;;;;;8.94;91.19;102344.47;4893766;29;20256;-73
2022/10/07 07:57:24;;;;;;;12.75;4.03;;;;;;;8.99;91.73;102346.13;4917936;29;20127;-73
2022/10/07 07:59:50;;;;;;;9.93;3.53;;;;;;;8.99;91.58;102337.97;4922632;29;20046;-73
2022/10/07 08:02:16;;;;;;;12.38;3.42;;;;;;;9.09;91.64;102342.06;4898090;29;20050;-74
2022/10/07 08:04:46;;;;;;;18.35;4.70;;;;;;;9.17;91.48;102346.22;4887435;29;20092;-73
2022/10/07 08:07:12;;;;;;;8.88;3.58;;;;;;;9.26;90.90;102346.81;4893974;29;20035;-73
2022/10/07 08:09:39;;;;;;;13.57;4.28;;;;;;;9.35;90.86;102341.84;4901190;29;20531;-73
2022/10/07 08:12:06;;;;;;;9.98;4.00;;;;;;;9.43;90.43;102344.25;4891125;29;20107;-73
2022/10/07 08:14:31;;;;;;;16.77;3.47;;;;;;;9.51;90.14;102335.75;4890307;29;20440;-73
2022/10/07 08:16:58;;;;;;;15.30;3.58;;;;;;;9.61;90.07;102338.00;4893992;29;20107;-73
2022/10/07 08:19:25;;;;;;;16.63;3.70;;;;;;;9.78;90.21;102328.19;4921238;29;20514;-73
2022/10/07 08:21:52;;;;;;;13.48;3.78;;;;;;;9.98;90.33;102328.19;4914265;29;20464;-74
2022/10/07 08:24:24;;;;;;;17.60;3.78;;;;;;;10.29;89.01;102333.09;4901691;29;20028;-73
2022/10/07 08:26:52;;;;;;;7.13;2.72;;;;;;;10.51;88.40;102330.22;4922418;29;20465;-73
2022/10/07 08:29:20;;;;;;;8.85;3.40;;;;;;;10.68;88.25;102326.69;4918982;29;20040;-74
2022/10/07 08:31:47;;;;;;;14.07;3.70;;;;;;;10.84;87.02;102332.25;4908172;29;20119;-74
2022/10/07 08:34:12;;;;;;;8.25;2.90;;;;;;;10.87;85.23;102322.09;4899420;29;20476;-73
2022/10/07 08:36:39;;;;;;;12.00;3.72;;;;;;;10.88;85.51;102320.25;4892711;29;20128;-74
2022/10/07 08:39:05;;;;;;;14.50;3.78;;;;;;;10.90;85.18;102323.78;4904325;29;20119;-74
2022/10/07 08:41:34;;;;;;;10.68;3.10;;;;;;;10.90;85.35;102321.91;4920993;29;20419;-73
2022/10/07 08:44:20;;;;;;;12.43;2.72;;;;;;;10.90;85.41;102315.59;4909429;29;20039;-73
2022/10/07 08:47:32;;;;;;;13.52;3.20;;;;;;;10.91;85.26;102314.63;4911929;29;20085;-73
2022/10/07 08:50:21;;;;;;;7.28;2.90;;;;;;;10.91;85.11;102315.53;4849090;29;20080;-74
2022/10/07 08:53:10;;;;;;;13.60;2.47;;;;;;;10.96;84.67;102304.41;4840350;29;20128;-73
2022/10/07 08:55:40;;;;;;;12.38;3.10;;;;;;;11.02;84.48;102304.09;4904759;29;20103;-74
2022/10/07 08:58:47;;;;;;;10.45;2.78;;;;;;;11.07;85.08;102302.03;4907637;29;20047;-74
2022/10/07 09:01:40;;;;;;;9.50;3.00;;;;;;;11.14;84.74;102295.28;4907527;29;20499;-73
2022/10/07 09:04:18;;;;;;;13.50;3.65;;;;;;;11.22;84.36;102294.91;4904782;29;20199;-74
2022/10/07 09:06:59;;;;;;;16.52;2.95;;;;;;;11.28;83.51;102288.25;4891153;29;20200;-73
2022/10/07 09:09:32;;;;;;;14.27;2.88;;;;;;;11.34;82.61;102277.91;4904042;29;20254;-73
2022/10/07 09:12:00;;;;;;;10.35;2.95;;;;;;;11.42;83.60;102282.94;4917561;29;20684;-74
2022/10/07 09:14:36;;;;;;;8.57;2.50;;;;;;;11.50;83.64;102284.31;4906412;29;20099;-74
2022/10/07 09:17:40;;;;;;;11.63;2.63;;;;;;;11.60;84.40;102290.13;4900181;29;20040;-73
2022/10/07 09:20:15;;;;;;;14.32;3.22;;;;;;;11.65;83.65;102282.59;4893248;29;20139;-73
2022/10/07 09:22:44;;;;;;;9.10;2.92;;;;;;;11.70;83.49;102287.78;4895866;29;20040;-73
2022/10/07 09:25:09;;;;;;;6.32;2.65;;;;;;;11.78;83.05;102280.09;4908160;29;20536;-74
2022/10/07 09:27:35;;;;;;;14.20;3.28;;;;;;;11.85;81.87;102280.69;4907417;29;20131;-74
2022/10/07 09:30:00;;;;;;;11.52;3.42;;;;;;;11.93;81.45;102276.53;4894553;29;20365;-74
2022/10/07 09:32:26;;;;;;;19.25;3.55;;;;;;;12.02;82.52;102271.56;4907567;29;20202;-73
2022/10/07 09:34:51;;;;;;;12.25;3.50;;;;;;;12.12;81.29;102270.94;4906818;29;20043;-73
2022/10/07 09:37:22;;;;;;;14.57;2.70;;;;;;;12.16;79.43;102275.25;4912029;29;20035;-74
2022/10/07 09:39:50;;;;;;;14.20;2.72;;;;;;;12.27;80.65;102271.06;4886257;29;20063;-73
2022/10/07 09:42:38;;;;;;;15.15;3.17;;;;;;;12.35;81.69;102266.03;4900030;29;20183;-74
2022/10/07 09:45:26;;;;;;;16.23;4.68;;;;;;;12.53;81.07;102259.53;4893400;29;20341;-73
2022/10/07 09:47:54;;;;;;;16.35;3.05;;;;;;;12.61;79.88;102256.34;4909961;29;20265;-73
2022/10/07 09:50:35;;;;;;;11.52;3.30;;;;;;;12.68;80.95;102260.47;4894529;29;20115;-74
2022/10/07 09:53:02;;;;;;;11.23;2.75;;;;;;;12.73;78.72;102252.91;4908498;29;20059;-75
2022/10/07 09:55:40;;;;;;;11.80;2.60;;;;;;;12.83;79.50;102247.78;4913969;29;20341;-74
2022/10/07 09:58:18;;;;;;;11.20;2.97;;;;;;;12.92;79.51;102241.78;4909746;29;20047;-73
2022/10/07 10:00:46;;;;;;;14.32;2.67;;;;;;;13.04;79.99;102238.28;4912133;29;20566;-73
2022/10/07 10:03:13;;;;;;;18.50;3.28;;;;;;;13.13;79.20;102236.84;4917902;29;20036;-75
2022/10/07 10:05:49;;;;;;;11.95;3.20;;;;;;;13.23;79.10;102238.94;4893967;29;20245;-73
2022/10/07 10:08:17;;;;;;;15.38;2.60;;;;;;;13.35;78.56;102240.06;4904019;29;20067;-75
2022/10/07 10:10:51;;;;;;;13.20;2.72;;;;;;;13.46;78.46;102228.47;4912399;29;20527;-74
2022/10/07 10:13:28;;;;;;;12.98;2.63;;;;;;;13.71;78.79;102223.22;4918755;29;20301;-73
2022/10/07 10:15:54;;;;;;;10.10;2.63;;;;;;;13.83;76.03;102221.53;4913521;29;20059;-74
2022/10/07 10:18:31;;;;;;;15.75;2.85;;;;;;;14.00;76.66;102218.59;4909170;29;20055;-73
2022/10/07 10:21:35;;;;;;;14.35;2.50;;;;;;;14.13;74.23;102213.22;4915635;29;20349;-75
2022/10/07 10:26:24;;;;;;;12.00;2.58;;;;;;;14.19;74.74;102204.59;4908973;29;20055;-74
2022/10/07 10:27:12;;;;;;;11.45;2.90;;;;;;;14.25;74.32;102193.22;4905828;29;20065;-74
2022/10/07 10:29:50;;;;;;;12.55;2.85;;;;;;;14.41;74.21;102197.66;4911389;29;20036;-74
2022/10/07 10:32:40;;;;;;;13.52;2.65;;;;;;;14.56;74.35;102188.47;4907611;29;20297;-75
2022/10/07 10:35:12;;;;;;;15.43;2.70;;;;;;;14.75;72.05;102183.50;4905216;29;20358;-74
2022/10/07 10:38:22;;;;;;;6.78;2.20;;;;;;;14.97;71.44;102176.53;4874930;29;20538;-74
2022/10/07 10:40:57;;;;;;;15.85;2.67;;;;;;;15.13;67.83;102181.81;4888792;29;20036;-74
2022/10/07 10:43:36;;;;;;;11.93;2.65;;;;;;;15.25;71.04;102175.47;4902015;29;20506;-75
2022/10/07 10:46:36;;;;;;;17.17;3.25;;;;;;;15.48;71.31;102171.97;4895054;29;20043;-74
2022/10/07 10:49:21;;;;;;;13.15;2.08;;;;;;;15.75;67.94;102171.84;4895406;29;20416;-73
2022/10/07 10:52:28;;;;;;;11.18;2.42;;;;;;;15.90;68.23;102166.22;4887098;29;20607;-74
2022/10/07 10:55:32;;;;;;;10.05;2.03;;;;;;;16.01;67.94;102160.81;4909029;29;20472;-75
2022/10/07 10:58:23;;;;;;;9.02;2.00;;;;;;;16.23;68.61;102158.22;4882896;29;20048;-73
2022/10/07 11:00:54;;;;;;;17.88;2.75;;;;;;;16.31;65.51;102149.38;4889401;29;20043;-74
2022/10/07 11:03:55;;;;;;;8.23;1.85;;;;;;;16.55;67.21;102149.38;4905718;29;20055;-75
2022/10/07 11:06:21;;;;;;;8.13;2.15;;;;;;;16.64;63.41;102153.28;4869811;29;20575;-74
2022/10/07 11:08:50;;;;;;;8.77;1.77;;;;;;;16.70;62.42;102139.09;4900980;29;20024;-73
2022/10/07 11:11:21;;;;;;;4.57;1.95;;;;;;;16.86;63.81;102147.03;4903499;29;20598;-73
2022/10/07 11:13:59;;;;;;;14.38;2.65;;;;;;;16.99;63.72;102136.84;4911231;29;20042;-75
2022/10/07 11:16:54;;;;;;;13.50;2.40;;;;;;;17.27;65.04;102136.41;4907230;29;20432;-73
2022/10/07 11:19:22;;;;;;;7.53;2.83;;;;;;;17.43;60.80;102133.28;4901377;29;20036;-73
2022/10/07 11:21:50;;;;;;;13.13;2.20;;;;;;;17.58;60.69;102131.19;4904238;29;20158;-73
2022/10/07 11:24:28;;;;;;;12.05;2.60;;;;;;;17.66;63.33;102128.66;4912943;29;20522;-75
2022/10/07 11:27:15;;;;;;;10.25;2.28;;;;;;;17.58;59.08;102122.91;4911288;29;20062;-73
2022/10/07 11:29:55;;;;;;;10.73;2.00;;;;;;;17.90;61.37;102114.75;4889540;29;20219;-73
2022/10/07 11:32:21;;;;;;;10.45;2.45;;;;;;;17.98;59.05;102109.50;4888738;29;20047;-73
2022/10/07 11:34:54;;;;;;;10.57;2.30;;;;;;;17.96;57.75;102096.88;4911812;29;20040;-76
2022/10/07 11:37:37;;;;;;;11.85;2.13;;;;;;;17.94;58.44;102091.47;4909316;29;20074;-75
2022/10/07 11:40:07;;;;;;;14.43;2.20;;;;;;;17.92;59.37;102079.72;4918138;29;20111;-75
2022/10/07 11:42:41;;;;;;;10.10;2.28;;;;;;;18.02;59.61;102075.19;4909167;29;20129;-73
2022/10/07 11:45:10;;;;;;;8.13;2.03;;;;;;;18.24;58.96;102068.75;4915665;29;20507;-76
2022/10/07 11:47:46;;;;;;;9.38;2.17;;;;;;;18.47;61.18;102069.53;4908438;29;20187;-73
2022/10/07 11:50:23;;;;;;;8.82;2.10;;;;;;;18.76;59.74;102060.63;4910661;29;20263;-75